Time;durP1;ratioP1;P1;durP2;ratioP2;P2;SDS_P1;SDS_P2;PMS_P1;PMS_P2;Temp;Humidity;BMP_temperature;BMP_pressure;BME280_temperature;BME280_humidity;BME280_pressure;Samples;Min_cycle;Max_cycle;Signal;HPM_P1;HPM_P2
2021/05/22 00:00:46;;;;;;;10.68;1.40;;;12.30;86.40;;;;;;5057313;28;20119;-74
2021/05/22 00:03:12;;;;;;;9.45;1.85;;;12.30;85.50;;;;;;5058710;28;20044;-74
2021/05/22 00:05:37;;;;;;;9.77;1.17;;;12.30;85.40;;;;;;5055839;28;20517;-74
2021/05/22 00:08:03;;;;;;;7.20;1.45;;;12.20;86.00;;;;;;5059537;28;20051;-74
2021/05/22 00:10:29;;;;;;;11.65;1.25;;;12.20;86.70;;;;;;5057727;28;20132;-74
2021/05/22 00:12:55;;;;;;;7.82;1.33;;;12.20;86.60;;;;;;5060455;28;20071;-74
2021/05/22 00:15:21;;;;;;;12.60;1.60;;;12.20;86.30;;;;;;5086178;28;20048;-74
2021/05/22 00:17:46;;;;;;;9.27;1.52;;;12.20;86.40;;;;;;5059417;28;20161;-74
2021/05/22 00:20:15;;;;;;;10.77;1.02;;;12.20;87.20;;;;;;5055376;28;20086;-74
2021/05/22 00:22:41;;;;;;;11.57;1.80;;;12.10;86.70;;;;;;5059006;28;20048;-74
2021/05/22 00:25:09;;;;;;;6.45;1.02;;;12.10;87.30;;;;;;5057752;28;20051;-74
2021/05/22 00:27:35;;;;;;;5.43;1.10;;;12.10;87.50;;;;;;5053746;28;20041;-74
2021/05/22 00:30:01;;;;;;;10.80;1.33;;;12.00;87.80;;;;;;5061413;28;20060;-74
2021/05/22 00:32:27;;;;;;;14.50;1.80;;;12.10;89.00;;;;;;5056496;28;20107;-74
2021/05/22 00:34:53;;;;;;;7.60;1.13;;;11.90;89.40;;;;;;5059275;28;20061;-74
2021/05/22 00:37:19;;;;;;;10.68;1.35;;;11.90;89.20;;;;;;5056490;28;20503;-74
2021/05/22 00:39:45;;;;;;;9.35;1.48;;;12.00;88.90;;;;;;5058915;28;20415;-74
2021/05/22 00:42:10;;;;;;;7.80;2.00;;;11.90;89.50;;;;;;5055449;28;20735;-74
2021/05/22 00:45:09;;;;;;;14.20;1.80;;;11.90;89.10;;;;;;5055873;28;20044;-73
2021/05/22 00:47:39;;;;;;;12.95;2.13;;;11.90;90.00;;;;;;5058938;28;20119;-74
2021/05/22 00:50:08;;;;;;;5.53;0.93;;;11.90;89.80;;;;;;5059177;28;20049;-74
2021/05/22 00:52:33;;;;;;;13.55;2.45;;;11.80;90.00;;;;;;5059984;28;20063;-74
2021/05/22 00:54:59;;;;;;;9.50;1.30;;;11.90;89.70;;;;;;5056311;28;21043;-74
2021/05/22 00:57:25;;;;;;;11.43;1.35;;;11.80;90.20;;;;;;5058034;28;20091;-74
2021/05/22 00:59:52;;;;;;;8.95;1.70;;;11.80;90.10;;;;;;5056944;28;20503;-73
2021/05/22 01:02:23;;;;;;;7.60;1.10;;;11.90;90.10;;;;;;5055650;28;20048;-73
2021/05/22 01:04:50;;;;;;;8.68;1.25;;;11.80;90.10;;;;;;5057336;28;20094;-74
2021/05/22 01:07:16;;;;;;;10.07;1.33;;;11.80;90.60;;;;;;5056885;28;20515;-74
2021/05/22 01:09:43;;;;;;;6.78;1.35;;;11.80;90.40;;;;;;5055898;28;20036;-73
2021/05/22 01:12:12;;;;;;;15.32;1.92;;;11.80;90.60;;;;;;5056696;28;20771;-74
2021/05/22 01:15:01;;;;;;;8.55;1.20;;;11.80;90.40;;;;;;5058522;28;20490;-74
2021/05/22 01:17:27;;;;;;;14.32;2.67;;;11.80;90.40;;;;;;5053095;28;20094;-74
2021/05/22 01:19:55;;;;;;;7.90;1.33;;;11.80;90.50;;;;;;5056792;28;20068;-74
2021/05/22 01:22:26;;;;;;;11.30;1.88;;;11.80;90.30;;;;;;5054120;28;20415;-74
2021/05/22 01:25:26;;;;;;;9.73;1.65;;;11.80;90.90;;;;;;5057026;28;20036;-73
2021/05/22 01:27:53;;;;;;;12.60;1.70;;;11.70;91.10;;;;;;5057113;28;20077;-74
2021/05/22 01:30:20;;;;;;;12.30;2.22;;;11.60;91.40;;;;;;5058731;28;20032;-74
2021/05/22 01:32:46;;;;;;;14.02;2.58;;;11.80;91.50;;;;;;5056028;28;20113;-74
2021/05/22 01:35:15;;;;;;;10.68;1.48;;;11.70;91.50;;;;;;5056783;28;20127;-73
2021/05/22 01:37:40;;;;;;;6.32;0.98;;;11.70;91.50;;;;;;5057872;28;20055;-73
2021/05/22 01:40:07;;;;;;;6.72;0.93;;;11.70;91.70;;;;;;5055583;28;20052;-73
2021/05/22 01:42:36;;;;;;;5.88;0.80;;;11.70;91.90;;;;;;5055873;28;20450;-74
2021/05/22 01:45:05;;;;;;;8.02;1.10;;;11.60;92.40;;;;;;5055926;28;20040;-73
2021/05/22 01:47:33;;;;;;;6.13;0.70;;;11.60;92.70;;;;;;5054938;28;20044;-73
2021/05/22 01:50:02;;;;;;;9.27;1.00;;;11.60;93.00;;;;;;5055676;28;20040;-73
2021/05/22 01:52:31;;;;;;;5.28;1.50;;;11.50;93.30;;;;;;5054148;28;20041;-74
2021/05/22 01:54:57;;;;;;;7.90;0.80;;;11.50;93.40;;;;;;5055427;28;20090;-74
2021/05/22 01:57:24;;;;;;;7.75;0.98;;;11.50;93.70;;;;;;5053162;28;20139;-73
2021/05/22 01:59:50;;;;;;;5.20;1.08;;;11.50;93.50;;;;;;5056508;28;20036;-74
2021/05/22 02:02:19;;;;;;;10.23;1.45;;;11.50;93.60;;;;;;5052794;28;20090;-74
2021/05/22 02:04:48;;;;;;;9.32;1.10;;;11.70;93.40;;;;;;5086011;28;20049;-74
2021/05/22 02:07:18;;;;;;;6.00;1.00;;;11.60;93.60;;;;;;5053675;28;23050;-74
2021/05/22 02:09:47;;;;;;;6.18;0.95;;;11.50;93.70;;;;;;5055042;28;20399;-74
2021/05/22 02:12:13;;;;;;;6.65;0.95;;;11.50;93.90;;;;;;5060358;28;20098;-73
2021/05/22 02:14:42;;;;;;;8.93;1.20;;;11.50;94.10;;;;;;5054804;28;20045;-74
2021/05/22 02:17:12;;;;;;;5.80;0.80;;;11.60;93.90;;;;;;5056922;28;20052;-74
2021/05/22 02:19:38;;;;;;;11.57;1.05;;;11.50;94.20;;;;;;5052679;28;20518;-74
2021/05/22 02:22:08;;;;;;;6.55;1.15;;;11.50;94.10;;;;;;5054412;28;20467;-74
2021/05/22 02:24:36;;;;;;;11.00;1.42;;;11.50;94.10;;;;;;5056868;28;20045;-74
2021/05/22 02:27:02;;;;;;;6.53;1.38;;;11.50;94.40;;;;;;5058944;28;20098;-74
2021/05/22 02:29:29;;;;;;;10.68;1.15;;;11.50;94.30;;;;;;5061895;28;20033;-74
2021/05/22 02:31:57;;;;;;;6.72;1.20;;;11.60;94.00;;;;;;5060590;28;21780;-74
2021/05/22 02:34:35;;;;;;;5.95;1.30;;;11.50;93.90;;;;;;5060422;28;20435;-74
2021/05/22 02:37:02;;;;;;;10.98;2.00;;;11.50;94.60;;;;;;5061901;28;20033;-73
2021/05/22 02:39:28;;;;;;;9.13;1.17;;;11.50;94.30;;;;;;5061164;28;20036;-74
2021/05/22 02:41:58;;;;;;;14.00;1.38;;;11.40;94.20;;;;;;5059787;28;20055;-74
2021/05/22 02:44:27;;;;;;;6.40;1.38;;;11.40;94.20;;;;;;5059364;28;20046;-74
2021/05/22 02:46:54;;;;;;;6.93;1.60;;;11.40;94.40;;;;;;5061587;28;20055;-73
2021/05/22 02:49:27;;;;;;;7.75;1.05;;;11.40;94.50;;;;;;5059866;28;20131;-73
2021/05/22 02:51:56;;;;;;;10.88;1.80;;;11.40;94.40;;;;;;5059702;28;20079;-73
2021/05/22 02:54:25;;;;;;;9.95;1.45;;;11.40;94.70;;;;;;5059796;28;20135;-73
2021/05/22 02:56:53;;;;;;;6.50;1.02;;;11.40;94.50;;;;;;5060653;28;20055;-73
2021/05/22 02:59:20;;;;;;;9.18;1.25;;;11.40;94.30;;;;;;5061083;28;20045;-73
2021/05/22 03:01:46;;;;;;;5.38;0.80;;;11.40;94.60;;;;;;5084737;28;20123;-73
2021/05/22 03:04:13;;;;;;;5.18;0.80;;;11.30;94.80;;;;;;5066181;28;20119;-74
2021/05/22 03:06:39;;;;;;;8.75;1.20;;;11.30;94.90;;;;;;5063557;28;20056;-73
2021/05/22 03:09:05;;;;;;;4.45;0.90;;;11.30;94.90;;;;;;5062587;28;20076;-73
2021/05/22 03:11:31;;;;;;;7.38;0.80;;;11.30;95.30;;;;;;5063215;28;20144;-73
2021/05/22 03:13:57;;;;;;;8.73;1.35;;;11.30;95.90;;;;;;5059826;28;20605;-73
2021/05/22 03:16:23;;;;;;;6.25;0.70;;;11.20;96.60;;;;;;5060013;28;20033;-74
2021/05/22 03:18:48;;;;;;;9.02;0.90;;;11.10;96.60;;;;;;5058204;28;20442;-74
2021/05/22 03:21:14;;;;;;;13.10;1.35;;;11.10;97.20;;;;;;5061219;28;20043;-74
2021/05/22 03:23:40;;;;;;;8.95;0.93;;;11.00;97.20;;;;;;5059314;28;20040;-73
2021/05/22 03:26:06;;;;;;;5.97;0.77;;;10.90;97.70;;;;;;5054397;28;20036;-73
2021/05/22 03:28:32;;;;;;;7.40;1.02;;;10.80;97.50;;;;;;5054863;28;20048;-72
2021/05/22 03:30:57;;;;;;;10.50;1.20;;;10.80;97.90;;;;;;5058609;28;20041;-72
2021/05/22 03:33:23;;;;;;;7.18;1.08;;;10.80;98.20;;;;;;5059487;28;20127;-73
2021/05/22 03:35:49;;;;;;;9.05;1.23;;;10.80;98.40;;;;;;5058947;28;20055;-73
2021/05/22 03:38:15;;;;;;;6.95;0.77;;;10.70;98.40;;;;;;5059129;28;20679;-72
2021/05/22 03:40:41;;;;;;;9.50;0.95;;;10.70;98.80;;;;;;5060812;28;20044;-72
2021/05/22 03:43:07;;;;;;;6.40;0.82;;;10.70;98.50;;;;;;5059300;28;20853;-72
2021/05/22 03:45:32;;;;;;;7.03;0.90;;;10.60;99.10;;;;;;5057918;28;20040;-72
2021/05/22 03:47:58;;;;;;;11.70;1.27;;;10.60;99.70;;;;;;5059538;28;20036;-72
2021/05/22 03:50:24;;;;;;;7.75;0.85;;;10.60;99.60;;;;;;5088840;27;20040;-72
2021/05/22 03:52:50;;;;;;;5.25;0.70;;;10.50;99.80;;;;;;5059279;28;20040;-72
2021/05/22 03:55:20;;;;;;;5.18;0.68;;;10.50;99.90;;;;;;5054809;28;20063;-72
2021/05/22 03:57:45;;;;;;;6.35;1.40;;;10.50;99.90;;;;;;5057980;28;20049;-72
2021/05/22 04:00:12;;;;;;;7.05;1.00;;;10.40;99.90;;;;;;5057099;28;20033;-72
2021/05/22 04:02:38;;;;;;;4.88;0.55;;;10.30;99.90;;;;;;5057867;28;20071;-72
2021/05/22 04:05:05;;;;;;;6.50;1.17;;;10.40;99.90;;;;;;5058682;28;20036;-72
2021/05/22 04:07:30;;;;;;;6.78;0.63;;;10.30;99.90;;;;;;5057579;28;20033;-72
2021/05/22 04:09:56;;;;;;;8.98;1.42;;;10.40;99.90;;;;;;5060710;28;20097;-72
2021/05/22 04:12:22;;;;;;;7.32;0.70;;;10.30;99.90;;;;;;5058720;28;20067;-72
2021/05/22 04:14:47;;;;;;;6.63;1.65;;;10.30;99.90;;;;;;5058310;28;21830;-72
2021/05/22 04:17:13;;;;;;;10.00;1.88;;;10.20;99.90;;;;;;5058544;28;20032;-72
2021/05/22 04:19:39;;;;;;;4.95;0.75;;;10.20;99.90;;;;;;5057015;28;20450;-72
2021/05/22 04:22:05;;;;;;;5.95;1.38;;;10.20;99.90;;;;;;5058115;28;20091;-72
2021/05/22 04:24:30;;;;;;;5.57;1.13;;;10.10;99.90;;;;;;5057241;28;20037;-72
2021/05/22 04:26:56;;;;;;;6.10;0.85;;;10.20;99.90;;;;;;5055448;28;20122;-72
2021/05/22 04:29:22;;;;;;;4.03;0.85;;;10.10;99.90;;;;;;5057464;28;21809;-72
2021/05/22 04:31:48;;;;;;;5.50;1.23;;;10.20;99.90;;;;;;5057708;28;20048;-72
2021/05/22 04:34:14;;;;;;;3.72;0.93;;;10.20;99.90;;;;;;5057090;28;20113;-72
2021/05/22 04:36:40;;;;;;;5.05;1.00;;;10.10;99.90;;;;;;5057873;28;20075;-72
2021/05/22 04:39:06;;;;;;;5.75;1.45;;;10.10;99.90;;;;;;5056874;28;20041;-73
2021/05/22 04:41:32;;;;;;;5.85;0.90;;;10.10;99.90;;;;;;5055578;28;20090;-72
2021/05/22 04:43:58;;;;;;;9.45;1.45;;;10.10;99.90;;;;;;5057910;28;20039;-72
2021/05/22 04:46:25;;;;;;;7.68;1.48;;;10.10;99.90;;;;;;5052551;28;20106;-72
2021/05/22 04:48:50;;;;;;;7.00;1.58;;;10.10;99.90;;;;;;5057968;28;20375;-72
2021/05/22 04:51:16;;;;;;;9.95;1.02;;;10.20;99.90;;;;;;5056248;28;20037;-72
2021/05/22 04:53:44;;;;;;;7.75;0.90;;;10.30;99.90;;;;;;5056362;28;20167;-72
2021/05/22 04:56:10;;;;;;;5.65;1.00;;;10.30;99.90;;;;;;5058226;28;20043;-72
2021/05/22 04:58:36;;;;;;;5.93;1.10;;;10.30;99.90;;;;;;5056940;28;20057;-72
2021/05/22 05:01:05;;;;;;;6.85;0.88;;;10.30;99.90;;;;;;5056533;28;20036;-72
2021/05/22 05:03:50;;;;;;;10.15;0.93;;;10.30;99.90;;;;;;5053411;28;20047;-72
2021/05/22 05:06:17;;;;;;;8.23;1.17;;;10.20;99.90;;;;;;5057677;28;20040;-73
2021/05/22 05:08:43;;;;;;;4.10;1.08;;;10.30;99.90;;;;;;5053768;28;20086;-72
2021/05/22 05:11:09;;;;;;;5.10;0.90;;;10.30;99.90;;;;;;5055908;28;20041;-72
2021/05/22 05:13:35;;;;;;;9.15;0.80;;;10.30;99.90;;;;;;5057103;28;20388;-72
2021/05/22 05:16:01;;;;;;;7.60;1.00;;;10.40;99.90;;;;;;5054747;28;20061;-72
2021/05/22 05:18:27;;;;;;;3.67;0.80;;;10.40;99.90;;;;;;5054722;28;20043;-72
2021/05/22 05:20:53;;;;;;;4.97;1.23;;;10.40;99.90;;;;;;5054717;28;20048;-72
2021/05/22 05:23:18;;;;;;;4.57;0.93;;;10.20;99.90;;;;;;5036991;28;546122;-72
2021/05/22 05:25:44;;;;;;;4.03;0.80;;;10.20;99.90;;;;;;5058573;28;20108;-72
2021/05/22 05:28:10;;;;;;;3.50;1.33;;;10.30;99.90;;;;;;5058135;28;20060;-72
2021/05/22 05:30:35;;;;;;;8.07;1.70;;;10.30;99.90;;;;;;5056017;28;20072;-72
2021/05/22 05:33:01;;;;;;;5.70;1.90;;;10.20;99.90;;;;;;5057276;28;20392;-72
2021/05/22 05:35:27;;;;;;;4.72;1.30;;;10.30;99.90;;;;;;5055235;28;20041;-72
2021/05/22 05:37:53;;;;;;;4.35;1.10;;;10.30;99.90;;;;;;5050367;28;20155;-72
2021/05/22 05:40:19;;;;;;;5.85;1.20;;;10.30;99.90;;;;;;5051029;28;20044;-73
2021/05/22 05:42:49;;;;;;;7.13;2.47;;;10.30;99.90;;;;;;5050730;28;20043;-73
2021/05/22 05:45:15;;;;;;;8.68;1.10;;;10.30;99.90;;;;;;5050010;28;20037;-73
2021/05/22 05:47:41;;;;;;;4.22;0.90;;;10.40;99.90;;;;;;5051608;28;20051;-73
2021/05/22 05:50:09;;;;;;;3.90;0.77;;;10.50;99.90;;;;;;5053125;28;20112;-72
2021/05/22 05:52:35;;;;;;;6.53;1.17;;;10.40;99.90;;;;;;5056717;28;21185;-73
2021/05/22 05:55:01;;;;;;;7.57;0.90;;;10.50;99.90;;;;;;5055683;28;20040;-73
2021/05/22 05:57:26;;;;;;;4.85;1.08;;;10.50;99.90;;;;;;5055406;28;20075;-72
2021/05/22 05:59:52;;;;;;;4.38;0.60;;;10.50;99.90;;;;;;5055635;28;20041;-73
2021/05/22 06:02:18;;;;;;;6.53;1.08;;;10.60;99.90;;;;;;5057171;28;20052;-73
2021/05/22 06:04:43;;;;;;;4.18;0.60;;;10.60;99.90;;;;;;5057204;28;20041;-73
2021/05/22 06:07:09;;;;;;;3.67;0.60;;;10.60;99.90;;;;;;5057410;28;20115;-73
2021/05/22 06:09:35;;;;;;;6.68;0.88;;;10.60;99.90;;;;;;5055673;28;20116;-73
2021/05/22 06:12:01;;;;;;;4.72;1.10;;;10.70;99.90;;;;;;5056408;28;20044;-73
2021/05/22 06:14:30;;;;;;;2.88;0.80;;;10.70;99.90;;;;;;5055702;28;20033;-73
2021/05/22 06:16:56;;;;;;;4.68;0.55;;;10.70;99.90;;;;;;5059289;28;20036;-73
2021/05/22 06:19:22;;;;;;;8.43;0.60;;;10.70;99.90;;;;;;5059597;28;20052;-73
2021/05/22 06:21:48;;;;;;;2.55;0.63;;;10.70;99.90;;;;;;5062808;28;20043;-73
2021/05/22 06:24:13;;;;;;;4.05;0.82;;;10.60;99.90;;;;;;5057840;28;21952;-73
2021/05/22 06:26:39;;;;;;;3.97;1.85;;;10.60;99.90;;;;;;5058306;28;20048;-73
2021/05/22 06:29:05;;;;;;;4.50;0.68;;;10.60;99.90;;;;;;5060133;28;20036;-72
2021/05/22 06:31:31;;;;;;;4.18;0.60;;;10.60;99.90;;;;;;5061201;28;20364;-72
2021/05/22 06:33:57;;;;;;;2.75;0.73;;;10.60;99.90;;;;;;5061108;28;20044;-72
2021/05/22 06:36:23;;;;;;;5.30;0.80;;;10.60;99.90;;;;;;5062228;28;20075;-72
2021/05/22 06:38:49;;;;;;;5.18;0.70;;;10.50;99.90;;;;;;5059353;28;20079;-72
2021/05/22 06:41:15;;;;;;;2.30;0.45;;;10.50;99.90;;;;;;5055529;28;20047;-72
2021/05/22 06:43:41;;;;;;;7.30;0.75;;;10.50;99.90;;;;;;5056836;28;20037;-72
2021/05/22 06:48:39;;;;;;;1.45;0.50;;;10.60;99.90;;;;;;5061348;28;20033;-73
2021/05/22 06:51:06;;;;;;;6.38;0.80;;;10.60;99.90;;;;;;5054647;28;20597;-73
2021/05/22 06:53:31;;;;;;;2.97;0.60;;;10.60;99.90;;;;;;5055244;28;20041;-73
2021/05/22 06:55:58;;;;;;;4.72;0.88;;;10.60;99.90;;;;;;5059513;28;20504;-72
2021/05/22 06:58:24;;;;;;;2.90;0.60;;;10.60;99.90;;;;;;5059216;28;20111;-72
2021/05/22 07:00:50;;;;;;;3.88;1.13;;;10.60;99.90;;;;;;5053760;28;20238;-73
2021/05/22 07:03:16;;;;;;;6.03;1.42;;;10.60;99.90;;;;;;5055212;28;20033;-72
2021/05/22 07:05:42;;;;;;;3.00;0.77;;;10.70;99.90;;;;;;5056348;28;20753;-73
2021/05/22 07:08:08;;;;;;;4.10;0.90;;;10.70;99.90;;;;;;5054108;28;20049;-72
2021/05/22 07:10:35;;;;;;;3.38;0.73;;;10.70;99.90;;;;;;5054691;28;20549;-73
2021/05/22 07:13:01;;;;;;;4.35;1.13;;;10.70;99.90;;;;;;5055702;28;20037;-72
2021/05/22 07:15:28;;;;;;;2.05;0.55;;;10.70;99.90;;;;;;5054154;28;20044;-72
2021/05/22 07:17:54;;;;;;;5.28;0.70;;;10.80;99.90;;;;;;5055866;28;20119;-72
2021/05/22 07:20:20;;;;;;;1.98;0.40;;;10.80;99.90;;;;;;5054820;28;20037;-72
2021/05/22 07:22:49;;;;;;;3.00;0.63;;;10.90;99.90;;;;;;5054977;28;20048;-73
2021/05/22 07:25:16;;;;;;;3.08;0.50;;;10.80;99.90;;;;;;5057096;28;20148;-72
2021/05/22 07:27:42;;;;;;;1.50;0.60;;;10.80;99.90;;;;;;5056233;28;20124;-73
2021/05/22 07:30:09;;;;;;;3.42;0.65;;;10.90;99.90;;;;;;5056083;28;20143;-72
2021/05/22 07:32:36;;;;;;;1.10;0.50;;;10.90;99.90;;;;;;5055580;28;20052;-73
2021/05/22 07:35:04;;;;;;;1.88;0.47;;;10.90;99.90;;;;;;5055634;28;20037;-73
2021/05/22 07:37:30;;;;;;;6.43;1.23;;;10.80;99.90;;;;;;5054859;28;20192;-72
2021/05/22 07:39:57;;;;;;;4.18;0.75;;;10.80;99.90;;;;;;5056424;28;20041;-73
2021/05/22 07:42:24;;;;;;;2.47;0.95;;;10.80;99.90;;;;;;5055329;28;20052;-72
2021/05/22 07:44:55;;;;;;;2.67;0.63;;;10.80;99.90;;;;;;5052538;28;20033;-72
2021/05/22 07:47:21;;;;;;;1.85;0.70;;;10.90;99.90;;;;;;5052179;28;20427;-72
2021/05/22 07:49:47;;;;;;;4.75;1.38;;;10.90;99.90;;;;;;5055145;28;20044;-72
2021/05/22 07:52:13;;;;;;;1.75;0.95;;;10.80;99.90;;;;;;5056728;28;20074;-72
2021/05/22 07:54:39;;;;;;;2.90;0.90;;;10.90;99.90;;;;;;5054345;28;20041;-72
2021/05/22 07:57:07;;;;;;;2.92;1.20;;;10.90;99.90;;;;;;5054590;28;20071;-72
2021/05/22 07:59:33;;;;;;;3.33;1.00;;;10.80;99.90;;;;;;5057404;28;20037;-72
2021/05/22 08:02:00;;;;;;;2.97;1.52;;;10.90;99.90;;;;;;5055456;28;20041;-72
2021/05/22 08:04:26;;;;;;;3.13;1.20;;;10.90;99.90;;;;;;5054739;28;20056;-72
2021/05/22 08:06:51;;;;;;;4.15;1.02;;;10.90;99.90;;;;;;5053563;28;20431;-72
2021/05/22 08:09:17;;;;;;;4.57;0.90;;;10.90;99.90;;;;;;5056317;28;20044;-72
2021/05/22 08:11:43;;;;;;;7.35;0.73;;;10.90;99.90;;;;;;5052131;28;20040;-73
2021/05/22 08:14:09;;;;;;;3.30;1.00;;;10.90;99.90;;;;;;5058260;28;20080;-72
2021/05/22 08:16:35;;;;;;;4.75;1.00;;;10.90;99.90;;;;;;5053978;28;20041;-73
2021/05/22 08:19:02;;;;;;;3.10;1.00;;;11.00;99.90;;;;;;5058910;28;20470;-73
2021/05/22 08:21:28;;;;;;;3.13;1.20;;;10.90;99.90;;;;;;5060112;28;20044;-74
2021/05/22 08:23:53;;;;;;;3.80;1.48;;;10.90;99.90;;;;;;5058975;28;20044;-73
2021/05/22 08:26:21;;;;;;;4.18;1.38;;;10.90;99.90;;;;;;5058899;28;20130;-73
2021/05/22 08:28:47;;;;;;;4.13;1.38;;;10.90;99.90;;;;;;5062166;28;20067;-73
2021/05/22 08:31:12;;;;;;;3.33;1.02;;;11.00;99.90;;;;;;5058800;28;20033;-73
2021/05/22 08:33:38;;;;;;;2.35;1.30;;;10.90;99.90;;;;;;5058899;28;20055;-73
2021/05/22 08:36:04;;;;;;;3.00;1.08;;;11.00;99.90;;;;;;5059211;28;20036;-73
2021/05/22 08:38:30;;;;;;;3.80;1.40;;;11.10;99.90;;;;;;5059043;28;20052;-73
2021/05/22 08:40:56;;;;;;;2.63;1.20;;;11.00;99.90;;;;;;5059805;28;20051;-72
2021/05/22 08:43:23;;;;;;;5.88;2.20;;;11.10;99.90;;;;;;5058029;28;20036;-72
2021/05/22 08:45:48;;;;;;;3.63;1.55;;;11.10;99.90;;;;;;5061207;28;20782;-72
2021/05/22 08:48:15;;;;;;;7.40;1.40;;;11.10;99.90;;;;;;5057732;28;20060;-72
2021/05/22 08:50:41;;;;;;;13.40;2.50;;;11.10;99.90;;;;;;5058505;28;20040;-72
2021/05/22 08:53:07;;;;;;;3.17;1.70;;;11.10;99.90;;;;;;5059144;28;20044;-72
2021/05/22 08:55:33;;;;;;;3.00;1.85;;;11.00;99.90;;;;;;5058185;28;21520;-72
2021/05/22 08:57:58;;;;;;;3.38;1.92;;;11.10;99.90;;;;;;5060929;28;20407;-73
2021/05/22 09:00:27;;;;;;;3.20;1.40;;;11.20;99.90;;;;;;5058353;28;20044;-72
2021/05/22 09:02:54;;;;;;;3.65;1.60;;;11.10;99.90;;;;;;5058554;28;20037;-73
2021/05/22 09:05:28;;;;;;;3.47;1.60;;;11.20;99.90;;;;;;5059495;28;20044;-73
2021/05/22 09:07:57;;;;;;;5.30;2.33;;;11.20;99.90;;;;;;5061568;28;20036;-73
2021/05/22 09:10:27;;;;;;;2.85;2.15;;;11.30;99.90;;;;;;5056671;28;20037;-73
2021/05/22 09:12:58;;;;;;;5.07;2.50;;;11.40;99.90;;;;;;5056111;28;20036;-73
2021/05/22 09:15:29;;;;;;;3.75;1.70;;;11.50;99.90;;;;;;5059860;28;20075;-73
2021/05/22 09:17:57;;;;;;;2.90;1.73;;;11.50;99.90;;;;;;5059467;28;20036;-73
2021/05/22 09:20:25;;;;;;;6.90;2.70;;;11.50;99.90;;;;;;5086961;27;20058;-73
2021/05/22 09:23:09;;;;;;;6.90;2.40;;;11.50;99.90;;;;;;5055639;28;20550;-73
2021/05/22 09:25:37;;;;;;;2.95;2.22;;;11.50;99.90;;;;;;5054659;28;20047;-74
2021/05/22 09:28:05;;;;;;;3.10;2.40;;;11.60;99.90;;;;;;5056233;28;20579;-73
2021/05/22 09:30:33;;;;;;;3.08;2.60;;;11.60;99.90;;;;;;5058329;28;20040;-73
2021/05/22 09:32:59;;;;;;;3.00;2.33;;;11.70;99.90;;;;;;5057150;28;20437;-73
2021/05/22 09:35:26;;;;;;;3.22;1.95;;;11.90;99.90;;;;;;5056508;28;20498;-73
2021/05/22 09:38:01;;;;;;;4.53;2.10;;;12.10;99.90;;;;;;5060832;28;20102;-73
2021/05/22 09:40:36;;;;;;;3.55;2.13;;;12.10;99.90;;;;;;5056937;28;20066;-73
2021/05/22 09:43:07;;;;;;;3.25;2.67;;;12.30;99.90;;;;;;5057456;28;20479;-73
2021/05/22 09:45:37;;;;;;;2.30;1.42;;;12.30;99.90;;;;;;5058043;28;20049;-73
2021/05/22 09:48:24;;;;;;;4.35;1.90;;;12.40;99.90;;;;;;5084882;28;20091;-74
2021/05/22 09:50:51;;;;;;;4.78;2.22;;;12.50;99.90;;;;;;5055924;28;20072;-74
2021/05/22 09:53:31;;;;;;;4.85;2.63;;;12.50;99.90;;;;;;5057060;28;20085;-74
2021/05/22 09:56:20;;;;;;;4.68;2.13;;;12.50;99.90;;;;;;5057129;28;20095;-73
2021/05/22 09:58:55;;;;;;;6.60;3.22;;;12.40;99.90;;;;;;5057600;28;20119;-72
2021/05/22 10:01:25;;;;;;;5.85;2.83;;;12.20;99.90;;;;;;5056033;28;20068;-73
2021/05/22 10:03:51;;;;;;;5.82;2.45;;;12.20;99.90;;;;;;5058285;28;20040;-73
2021/05/22 10:06:16;;;;;;;5.07;2.53;;;12.20;99.90;;;;;;5056733;28;20048;-73
2021/05/22 10:08:43;;;;;;;6.72;1.92;;;12.30;99.90;;;;;;5053664;28;20493;-73
2021/05/22 10:11:09;;;;;;;3.38;2.05;;;12.40;99.90;;;;;;5055974;28;21501;-73
2021/05/22 10:13:36;;;;;;;4.65;2.72;;;12.60;99.90;;;;;;5059809;28;20044;-74
2021/05/22 10:16:03;;;;;;;7.57;2.05;;;12.90;99.90;;;;;;5061530;28;20084;-74
2021/05/22 10:18:31;;;;;;;3.35;2.05;;;13.10;99.90;;;;;;5064257;28;20044;-74
2021/05/22 10:21:00;;;;;;;5.07;2.75;;;13.10;99.90;;;;;;5064240;28;20095;-74
2021/05/22 10:23:26;;;;;;;4.93;2.47;;;13.20;99.90;;;;;;5061479;28;20040;-74
2021/05/22 10:25:54;;;;;;;3.58;2.08;;;13.20;99.90;;;;;;5056522;28;20040;-74
2021/05/22 10:28:21;;;;;;;3.22;1.92;;;13.20;99.90;;;;;;5057560;28;20037;-74
2021/05/22 10:30:48;;;;;;;3.13;2.13;;;13.20;99.90;;;;;;5055096;28;20040;-74
2021/05/22 10:33:16;;;;;;;4.22;2.05;;;13.10;99.90;;;;;;5054965;28;20067;-74
2021/05/22 10:35:44;;;;;;;3.17;1.88;;;13.00;99.90;;;;;;5053136;28;20049;-74
2021/05/22 10:38:10;;;;;;;5.93;2.53;;;12.90;99.90;;;;;;5060324;28;20490;-74
2021/05/22 10:40:51;;;;;;;3.92;2.60;;;12.90;99.90;;;;;;5086999;27;20482;-74
2021/05/22 10:43:39;;;;;;;4.18;1.63;;;12.90;99.90;;;;;;5060149;28;20040;-74
2021/05/22 10:46:06;;;;;;;7.80;2.45;;;13.10;99.90;;;;;;5053368;28;20040;-74
2021/05/22 10:48:32;;;;;;;5.15;1.95;;;13.20;99.90;;;;;;5058344;28;20060;-74
2021/05/22 10:50:59;;;;;;;4.63;1.95;;;13.10;99.90;;;;;;5055765;28;20190;-74
2021/05/22 10:53:24;;;;;;;5.70;2.35;;;13.10;99.90;;;;;;5053723;28;20040;-74
2021/05/22 10:56:13;;;;;;;5.65;2.42;;;12.90;99.90;;;;;;5056348;28;20067;-74
2021/05/22 10:59:07;;;;;;;5.18;2.30;;;12.80;99.90;;;;;;5057533;28;20063;-74
2021/05/22 11:01:37;;;;;;;4.72;2.65;;;12.90;99.90;;;;;;5055502;28;20044;-74
2021/05/22 11:06:48;;;;;;;5.15;1.90;;;12.70;99.90;;;;;;5055185;28;20079;-74
2021/05/22 11:09:31;;;;;;;6.35;2.58;;;12.70;99.90;;;;;;5053907;28;20090;-74
2021/05/22 11:11:58;;;;;;;4.13;2.10;;;12.70;99.90;;;;;;5056080;28;20090;-74
2021/05/22 11:14:37;;;;;;;6.00;2.78;;;12.70;99.90;;;;;;5054917;28;20419;-74
2021/05/22 11:17:28;;;;;;;5.32;2.20;;;12.70;99.90;;;;;;5057064;28;20144;-74
2021/05/22 11:19:57;;;;;;;3.63;1.70;;;12.70;99.90;;;;;;5055690;28;20391;-74
2021/05/22 11:22:23;;;;;;;9.02;1.17;;;12.80;99.90;;;;;;5056121;28;20033;-74
2021/05/22 11:25:06;;;;;;;8.15;0.63;;;12.90;99.90;;;;;;5055732;28;20056;-74
2021/05/22 11:27:56;;;;;;;2.38;0.50;;;12.90;99.90;;;;;;5054706;28;20108;-74
2021/05/22 11:30:43;;;;;;;2.30;0.55;;;12.90;99.90;;;;;;5055092;28;20712;-74
2021/05/22 11:33:10;;;;;;;2.92;0.35;;;12.90;99.90;;;;;;5056551;28;20045;-74
2021/05/22 11:35:39;;;;;;;3.70;0.68;;;12.90;99.90;;;;;;5057015;28;20101;-74
2021/05/22 11:38:10;;;;;;;3.80;0.60;;;13.00;99.90;;;;;;5055902;28;20041;-74
2021/05/22 11:40:39;;;;;;;3.85;0.73;;;13.00;99.90;;;;;;5057471;28;20040;-74
2021/05/22 11:43:25;;;;;;;2.78;0.40;;;13.00;99.90;;;;;;5069949;28;20044;-74
2021/05/22 11:45:55;;;;;;;5.88;0.68;;;12.90;99.90;;;;;;5057031;28;20044;-74
2021/05/22 11:48:31;;;;;;;4.13;0.47;;;13.00;99.90;;;;;;5053068;28;20442;-74
2021/05/22 11:50:56;;;;;;;4.40;0.73;;;13.40;99.90;;;;;;5055943;28;20115;-75
2021/05/22 11:53:25;;;;;;;3.83;1.08;;;14.00;99.90;;;;;;5057867;28;20804;-74
2021/05/22 11:56:12;;;;;;;3.67;0.50;;;14.40;99.70;;;;;;5056740;28;20044;-75
2021/05/22 11:58:39;;;;;;;5.05;0.70;;;14.50;99.00;;;;;;5057465;28;20052;-74
2021/05/22 12:01:12;;;;;;;3.80;1.02;;;14.40;99.40;;;;;;5058185;28;20033;-75
2021/05/22 12:03:38;;;;;;;7.15;1.40;;;14.30;99.60;;;;;;5058819;28;20504;-74
2021/05/22 12:06:09;;;;;;;6.32;0.80;;;14.20;98.70;;;;;;5061330;28;20051;-74
2021/05/22 12:08:36;;;;;;;5.57;0.80;;;14.00;98.50;;;;;;5057758;28;20037;-74
2021/05/22 12:11:13;;;;;;;3.40;1.23;;;13.90;98.70;;;;;;5059628;28;20045;-74
2021/05/22 12:13:55;;;;;;;2.92;0.60;;;13.80;99.40;;;;;;5059100;28;20128;-75
2021/05/22 12:16:21;;;;;;;4.15;0.80;;;13.70;98.60;;;;;;5056048;28;20410;-74
2021/05/22 12:18:47;;;;;;;3.67;0.80;;;13.70;99.30;;;;;;5058235;28;20072;-74
2021/05/22 12:21:26;;;;;;;4.68;1.05;;;13.70;98.90;;;;;;5056583;28;20521;-74
2021/05/22 12:23:53;;;;;;;4.43;1.05;;;13.60;98.00;;;;;;5054157;28;20044;-75
2021/05/22 12:26:19;;;;;;;4.40;0.90;;;13.40;98.30;;;;;;5056867;28;20115;-74
2021/05/22 12:28:45;;;;;;;6.10;1.33;;;13.40;99.20;;;;;;5055381;28;20449;-74
2021/05/22 12:31:12;;;;;;;4.30;1.63;;;13.40;99.20;;;;;;5059003;28;20526;-75
2021/05/22 12:33:38;;;;;;;2.85;0.73;;;13.50;99.20;;;;;;5055300;28;20041;-74
2021/05/22 12:36:08;;;;;;;4.40;1.08;;;13.50;98.70;;;;;;5055003;28;20033;-75
2021/05/22 12:38:39;;;;;;;3.72;0.90;;;13.60;98.00;;;;;;5055070;28;20053;-75
2021/05/22 12:41:05;;;;;;;1.92;0.57;;;13.90;98.80;;;;;;5058091;28;20039;-75
2021/05/22 12:43:51;;;;;;;4.03;1.60;;;14.30;97.60;;;;;;5059098;28;20040;-75
2021/05/22 12:46:26;;;;;;;7.57;0.95;;;14.80;97.10;;;;;;5057425;28;20036;-75
2021/05/22 12:49:08;;;;;;;5.55;1.35;;;14.90;97.30;;;;;;5059304;28;20640;-75
2021/05/22 12:51:34;;;;;;;5.30;1.58;;;14.90;96.80;;;;;;5057963;28;20218;-75
2021/05/22 12:54:23;;;;;;;3.22;1.02;;;15.10;97.30;;;;;;5060198;28;20136;-75
2021/05/22 12:57:03;;;;;;;4.28;1.05;;;15.00;96.20;;;;;;5058009;28;20037;-75